createdAt,value
2018-09-11T00:00:20.045Z,101045.38
2018-09-11T00:02:49.063Z,101046.25
2018-09-11T00:05:18.071Z,101041.22
2018-09-11T00:07:47.060Z,101045.88
2018-09-11T00:10:16.041Z,101045.75
2018-09-11T00:12:45.023Z,101045.44
2018-09-11T00:15:14.134Z,101041.70
2018-09-11T00:17:43.083Z,101047.10
2018-09-11T00:20:12.069Z,101041.90
2018-09-11T00:22:41.112Z,101045.77
2018-09-11T00:25:10.138Z,101047.80
2018-09-11T00:27:39.136Z,101040.35
2018-09-11T00:30:08.176Z,101034.93
2018-09-11T00:32:37.136Z,101029.24
2018-09-11T00:35:06.125Z,101035.97
2018-09-11T00:37:35.147Z,101036.61
2018-09-11T00:40:04.210Z,101030.54
2018-09-11T00:42:33.290Z,101030.91
2018-09-11T00:45:02.455Z,101026.13
2018-09-11T00:47:31.367Z,101026.13
2018-09-11T00:50:00.379Z,101032.16
2018-09-11T00:52:29.346Z,101027.48
2018-09-11T00:54:58.555Z,101033.91
2018-09-11T00:57:27.488Z,101027.67
2018-09-11T00:59:56.437Z,101033.88
2018-09-11T01:02:25.389Z,101034.73
2018-09-11T01:04:54.500Z,101036.10
2018-09-11T01:07:23.460Z,101034.58
2018-09-11T01:09:52.543Z,101042.00
2018-09-11T01:12:21.477Z,101042.67
2018-09-11T01:14:50.626Z,101049.56
2018-09-11T01:17:19.601Z,101053.94
2018-09-11T01:19:48.629Z,101056.90
2018-09-11T01:22:17.658Z,101057.06
2018-09-11T01:24:46.645Z,101065.20
2018-09-11T01:27:15.602Z,101059.45
2018-09-11T01:29:44.658Z,101070.14
2018-09-11T01:32:13.642Z,101068.45
2018-09-11T01:34:42.635Z,101071.80
2018-09-11T01:37:11.698Z,101072.19
2018-09-11T01:39:40.719Z,101075.67
2018-09-11T01:42:09.662Z,101072.25
2018-09-11T01:44:38.685Z,101083.24
2018-09-11T01:47:07.646Z,101082.31
2018-09-11T01:49:36.675Z,101089.30
2018-09-11T01:52:05.730Z,101078.88
2018-09-11T01:54:34.752Z,101083.88
2018-09-11T01:57:03.702Z,101084.77
2018-09-11T01:59:32.676Z,101086.81
2018-09-11T02:02:01.742Z,101082.13
2018-09-11T02:04:30.727Z,101090.31
2018-09-11T02:06:59.704Z,101082.28
2018-09-11T02:09:28.821Z,101089.81
2018-09-11T02:11:57.765Z,101092.55
2018-09-11T02:14:26.726Z,101098.22
2018-09-11T02:16:55.750Z,101092.94
2018-09-11T02:19:24.709Z,101097.81
2018-09-11T02:21:53.786Z,101095.53
2018-09-11T02:24:22.730Z,101094.98
2018-09-11T02:26:51.726Z,101099.02
2018-09-11T02:29:20.690Z,101090.97
2018-09-11T02:31:49.682Z,101088.97
2018-09-11T02:34:18.638Z,101090.91
2018-09-11T02:36:47.647Z,101085.26
2018-09-11T02:39:16.590Z,101089.38
2018-09-11T02:41:45.605Z,101094.67
2018-09-11T02:44:14.561Z,101094.56
2018-09-11T02:46:43.610Z,101094.48
2018-09-11T02:49:12.610Z,101097.02
2018-09-11T02:51:41.726Z,101099.02
2018-09-11T02:54:10.711Z,101104.32
2018-09-11T02:56:39.750Z,101109.62
2018-09-11T02:59:08.710Z,101107.36
2018-09-11T03:01:37.772Z,101100.23
2018-09-11T03:04:06.897Z,101103.27
2018-09-11T03:06:35.896Z,101105.62
2018-09-11T03:09:06.237Z,101114.38
2018-09-11T03:11:35.379Z,101107.14
2018-09-11T03:14:04.439Z,101113.94
2018-09-11T03:16:33.430Z,101107.93
2018-09-11T03:19:02.618Z,101117.09
2018-09-11T03:21:31.623Z,101116.59
2018-09-11T03:24:00.570Z,101121.08
2018-09-11T03:26:29.693Z,101121.08
2018-09-11T03:28:58.760Z,101120.69
2018-09-11T03:31:27.738Z,101125.10
2018-09-11T03:33:56.746Z,101121.25
2018-09-11T03:36:25.726Z,101127.02
2018-09-11T03:38:54.640Z,101124.63
2018-09-11T03:41:23.625Z,101119.00
2018-09-11T03:43:52.861Z,101116.86
2018-09-11T03:46:22.181Z,101121.42
2018-09-11T03:48:51.239Z,101125.88
2018-09-11T03:51:20.230Z,101123.06
2018-09-11T03:53:49.446Z,101120.14
2018-09-11T03:56:25.085Z,101124.92
2018-09-11T03:58:54.098Z,101127.59
2018-09-11T04:01:23.075Z,101133.59
2018-09-11T04:03:52.063Z,101134.55
2018-09-11T04:06:21.083Z,101134.53
2018-09-11T04:08:50.058Z,101137.13
2018-09-11T04:11:19.024Z,101130.73
2018-09-11T04:13:47.994Z,101133.91
2018-09-11T04:16:16.990Z,101130.55
2018-09-11T04:18:45.942Z,101131.91
2018-09-11T04:21:14.993Z,101137.11
2018-09-11T04:23:43.976Z,101134.44
2018-09-11T04:26:13.084Z,101130.33
2018-09-11T04:28:42.273Z,101132.09
2018-09-11T04:31:11.405Z,101127.73
2018-09-11T04:33:40.418Z,101123.31
2018-09-11T04:36:09.467Z,101126.95
2018-09-11T04:38:38.446Z,101127.38
2018-09-11T04:41:07.409Z,101130.88
2018-09-11T04:43:36.387Z,101129.48
2018-09-11T04:46:05.451Z,101130.56
2018-09-11T04:48:34.422Z,101128.45
2018-09-11T04:51:03.448Z,101131.32
2018-09-11T04:53:32.392Z,101134.75
2018-09-11T04:56:01.604Z,101142.81
2018-09-11T04:58:30.529Z,101138.28
2018-09-11T05:00:59.966Z,101141.39
2018-09-11T05:03:28.978Z,101139.75
2018-09-11T05:05:58.012Z,101139.03
2018-09-11T05:08:26.977Z,101142.61
2018-09-11T05:10:56.160Z,101143.84
2018-09-11T05:13:25.147Z,101139.47
2018-09-11T05:15:54.200Z,101151.13
2018-09-11T05:18:23.241Z,101146.45
2018-09-11T05:20:52.234Z,101147.36
2018-09-11T05:23:21.243Z,101152.26
2018-09-11T05:25:50.238Z,101146.81
2018-09-11T05:28:19.293Z,101145.62
2018-09-11T05:30:48.338Z,101150.78
2018-09-11T05:33:17.383Z,101157.37
2018-09-11T05:35:46.424Z,101160.98
2018-09-11T05:38:15.494Z,101166.66
2018-09-11T05:40:44.534Z,101166.47
2018-09-11T05:43:13.683Z,101174.36
2018-09-11T05:45:42.614Z,101168.75
2018-09-11T05:48:11.666Z,101172.30
2018-09-11T05:50:40.735Z,101178.64
2018-09-11T05:53:09.794Z,101173.97
2018-09-11T05:55:38.893Z,101191.30
2018-09-11T05:58:07.959Z,101194.56
2018-09-11T06:00:36.959Z,101196.59
2018-09-11T06:03:06.323Z,101190.81
2018-09-11T06:05:35.355Z,101198.69
2018-09-11T06:08:04.430Z,101199.11
2018-09-11T06:10:33.430Z,101198.89
2018-09-11T06:13:02.485Z,101201.34
2018-09-11T06:15:32.331Z,101192.51
2018-09-11T06:18:01.428Z,101196.45
2018-09-11T06:20:30.455Z,101191.69
2018-09-11T06:22:59.543Z,101191.95
2018-09-11T06:25:28.587Z,101195.55
2018-09-11T06:27:57.722Z,101197.22
2018-09-11T06:30:26.746Z,101190.47
2018-09-11T06:32:55.917Z,101199.70
2018-09-11T06:35:25.022Z,101191.25
2018-09-11T06:37:54.021Z,101201.53
2018-09-11T06:40:22.990Z,101194.59
2018-09-11T06:42:52.149Z,101193.02
2018-09-11T06:45:21.082Z,101194.20
2018-09-11T06:47:50.132Z,101189.61
2018-09-11T06:50:19.089Z,101193.41
2018-09-11T06:52:48.222Z,101194.44
2018-09-11T06:55:17.205Z,101196.95
2018-09-11T06:57:46.324Z,101194.45
2018-09-11T07:00:15.389Z,101193.19
2018-09-11T07:02:44.514Z,101202.53
2018-09-11T07:05:13.481Z,101190.25
2018-09-11T07:07:42.507Z,101200.27
2018-09-11T07:10:11.514Z,101196.26
2018-09-11T07:12:40.552Z,101193.86
2018-09-11T07:15:09.622Z,101189.22
2018-09-11T07:17:38.687Z,101198.52
2018-09-11T07:20:08.822Z,101194.13
2018-09-11T07:22:37.802Z,101197.27
2018-09-11T07:25:06.948Z,101192.55
2018-09-11T07:27:35.984Z,101193.43
2018-09-11T07:30:04.966Z,101193.61
2018-09-11T07:32:34.044Z,101197.32
2018-09-11T07:35:03.091Z,101197.42
2018-09-11T07:37:32.179Z,101205.56
2018-09-11T07:40:01.291Z,101201.33
2018-09-11T07:42:30.362Z,101196.37
2018-09-11T07:44:59.375Z,101197.45
2018-09-11T07:47:28.437Z,101199.90
2018-09-11T07:49:57.391Z,101192.87
2018-09-11T07:52:26.434Z,101198.50
2018-09-11T07:54:55.487Z,101209.67
2018-09-11T07:57:24.736Z,101208.91
2018-09-11T07:59:53.682Z,101209.18
2018-09-11T08:02:22.725Z,101209.30
2018-09-11T08:04:51.758Z,101217.30
2018-09-11T08:07:20.855Z,101220.95
2018-09-11T08:09:49.875Z,101216.72
2018-09-11T08:12:18.859Z,101214.44
2018-09-11T08:14:47.890Z,101220.98
2018-09-11T08:17:16.961Z,101218.61
2018-09-11T08:19:46.065Z,101214.06
2018-09-11T08:22:15.067Z,101212.73
2018-09-11T08:24:44.151Z,101216.61
2018-09-11T08:27:13.145Z,101211.38
2018-09-11T08:29:42.188Z,101211.70
2018-09-11T08:32:11.133Z,101213.29
2018-09-11T08:34:40.137Z,101216.22
2018-09-11T08:37:09.103Z,101213.43
2018-09-11T08:39:38.228Z,101207.31
2018-09-11T08:42:07.170Z,101209.63
2018-09-11T08:44:36.263Z,101214.03
2018-09-11T08:47:05.315Z,101210.14
2018-09-11T08:49:34.269Z,101211.05
2018-09-11T08:52:03.511Z,101207.42
2018-09-11T08:54:32.546Z,101207.23
2018-09-11T08:57:01.569Z,101204.27
2018-09-11T08:59:30.610Z,101210.60
2018-09-11T09:01:59.556Z,101209.30
2018-09-11T09:04:28.535Z,101214.48
2018-09-11T09:06:57.494Z,101213.53
2018-09-11T09:09:26.465Z,101211.88
2018-09-11T09:11:55.398Z,101211.03
2018-09-11T09:14:24.378Z,101206.83
2018-09-11T09:16:53.367Z,101212.81
2018-09-11T09:19:22.338Z,101208.27
2018-09-11T09:21:51.271Z,101200.27
2018-09-11T09:24:20.326Z,101192.63
2018-09-11T09:26:49.395Z,101193.19
2018-09-11T09:29:18.410Z,101192.91
2018-09-11T09:31:47.427Z,101179.13
2018-09-11T09:34:16.441Z,101177.33
2018-09-11T09:36:45.553Z,101181.45
2018-09-11T09:39:14.562Z,101171.36
2018-09-11T09:41:43.530Z,101174.16
2018-09-11T09:44:12.527Z,101176.53
2018-09-11T09:46:41.602Z,101176.95
2018-09-11T09:49:10.971Z,101168.89
2018-09-11T09:51:39.937Z,101172.87
2018-09-11T09:54:08.942Z,101169.72
2018-09-11T09:56:37.978Z,101174.86
2018-09-11T09:59:06.977Z,101163.09
2018-09-11T10:01:41.202Z,101168.91
2018-09-11T10:04:10.270Z,101156.75
2018-09-11T10:06:39.318Z,101158.90
2018-09-11T10:09:10.480Z,101153.88
2018-09-11T10:11:39.547Z,101149.59
2018-09-11T10:14:08.646Z,101155.37
2018-09-11T10:16:37.707Z,101153.89
2018-09-11T10:19:06.825Z,101143.38
2018-09-11T10:21:35.792Z,101135.67
2018-09-11T10:24:04.979Z,101136.14
2018-09-11T10:26:33.962Z,101135.28
2018-09-11T10:29:02.915Z,101142.72
2018-09-11T10:31:31.878Z,101125.22
2018-09-11T10:34:00.910Z,101126.23
2018-09-11T10:36:29.891Z,101120.20
2018-09-11T10:38:59.102Z,101120.50
2018-09-11T10:41:28.082Z,101111.17
2018-09-11T10:43:57.031Z,101105.88
2018-09-11T10:46:26.022Z,101110.39
2018-09-11T10:48:55.112Z,101112.20
2018-09-11T10:51:24.156Z,101112.44
2018-09-11T10:53:53.155Z,101098.95
2018-09-11T10:56:22.237Z,101100.52
2018-09-11T10:58:51.562Z,101094.33
2018-09-11T11:01:20.506Z,101087.97
2018-09-11T11:03:49.678Z,101082.50
2018-09-11T11:06:18.635Z,101087.95
2018-09-11T11:08:47.677Z,101076.73
2018-09-11T11:11:16.654Z,101071.63
2018-09-11T11:13:45.615Z,101066.01
2018-09-11T11:16:14.650Z,101073.06
2018-09-11T11:18:43.645Z,101073.03
2018-09-11T11:21:12.614Z,101066.52
2018-09-11T11:23:41.695Z,101062.51
2018-09-11T11:26:10.876Z,101070.20
2018-09-11T11:28:39.805Z,101070.49
2018-09-11T11:31:08.830Z,101060.95
2018-09-11T11:33:37.809Z,101063.19
2018-09-11T11:36:06.950Z,101062.16
2018-09-11T11:38:35.868Z,101067.95
2018-09-11T11:41:04.895Z,101069.10
2018-09-11T11:43:33.802Z,101064.92
2018-09-11T11:46:02.812Z,101064.31
2018-09-11T11:48:31.858Z,101069.33
2018-09-11T11:51:00.865Z,101070.20
2018-09-11T11:53:29.849Z,101054.45
2018-09-11T11:55:58.911Z,101055.19
2018-09-11T11:58:27.854Z,101051.52
2018-09-11T12:00:56.914Z,101046.33
2018-09-11T12:03:25.930Z,101047.13
2018-09-11T12:05:54.892Z,101053.98
2018-09-11T12:08:23.951Z,101052.50
2018-09-11T12:10:53.058Z,101050.77
2018-09-11T12:13:22.061Z,101037.79
2018-09-11T12:15:51.125Z,101055.23
2018-09-11T12:18:20.103Z,101047.59
2018-09-11T12:20:49.153Z,101042.66
2018-09-11T12:23:18.185Z,101049.28
2018-09-11T12:25:47.207Z,101052.45
2018-09-11T12:28:16.338Z,101041.31
2018-09-11T12:30:45.369Z,101037.91
2018-09-11T12:33:14.481Z,101038.91
2018-09-11T12:35:43.600Z,101033.87
2018-09-11T12:38:12.568Z,101028.76
2018-09-11T12:40:41.688Z,101025.68
2018-09-11T12:43:10.659Z,101020.78
2018-09-11T12:45:39.739Z,101021.47
2018-09-11T12:48:09.111Z,101022.73
2018-09-11T12:50:37.825Z,101028.13
2018-09-11T12:53:06.950Z,101019.59
2018-09-11T12:55:35.973Z,101019.66
2018-09-11T12:58:04.997Z,101011.38
2018-09-11T13:00:34.042Z,101006.70
2018-09-11T13:03:03.036Z,101004.84
2018-09-11T13:05:32.154Z,100998.36
2018-09-11T13:08:01.158Z,100992.31
2018-09-11T13:10:30.190Z,101001.83
2018-09-11T13:12:59.219Z,101007.17
2018-09-11T13:15:28.249Z,101003.02
2018-09-11T13:17:57.258Z,100990.88
2018-09-11T13:20:26.307Z,100988.30
2018-09-11T13:22:55.335Z,100984.27
2018-09-11T13:25:24.470Z,100987.13
2018-09-11T13:27:53.498Z,100977.95
2018-09-11T13:30:22.516Z,100981.23
2018-09-11T13:32:51.562Z,100972.49
2018-09-11T13:35:20.593Z,100980.47
2018-09-11T13:37:49.617Z,100973.52
2018-09-11T13:40:18.614Z,100972.09
2018-09-11T13:42:47.611Z,100978.84
2018-09-11T13:45:16.706Z,100974.27
2018-09-11T13:47:45.858Z,100966.89
2018-09-11T13:50:14.872Z,100973.55
2018-09-11T13:52:43.944Z,100964.34
2018-09-11T13:55:13.017Z,100957.19
2018-09-11T13:57:42.006Z,100958.09
2018-09-11T14:00:11.160Z,100965.55
2018-09-11T14:02:40.566Z,100967.12
2018-09-11T14:05:09.750Z,100956.03
2018-09-11T14:07:38.886Z,100957.07
2018-09-11T14:10:07.967Z,100948.51
2018-09-11T14:12:37.076Z,100947.33
2018-09-11T14:15:06.536Z,100949.45
2018-09-11T14:17:35.607Z,100941.97
2018-09-11T14:20:05.302Z,100944.97
2018-09-11T14:22:34.312Z,100939.44
2018-09-11T14:25:03.309Z,100941.48
2018-09-11T14:27:32.379Z,100936.48
2018-09-11T14:30:01.399Z,100936.78
2018-09-11T14:32:30.350Z,100936.60
2018-09-11T14:34:59.342Z,100935.17
2018-09-11T14:37:28.298Z,100937.61
2018-09-11T14:39:57.306Z,100933.83
2018-09-11T14:42:26.363Z,100938.34
2018-09-11T14:44:55.342Z,100940.91
2018-09-11T14:47:24.549Z,100940.91
2018-09-11T14:49:53.537Z,100946.94
2018-09-11T14:52:22.540Z,100942.86
2018-09-11T14:54:51.531Z,100939.54
2018-09-11T14:57:20.567Z,100943.13
2018-09-11T14:59:49.540Z,100935.89
2018-09-11T15:02:18.579Z,100939.00
2018-09-11T15:04:47.638Z,100939.75
2018-09-11T15:07:16.767Z,100937.61
2018-09-11T15:09:45.802Z,100935.64
2018-09-11T15:12:14.808Z,100928.59
2018-09-11T15:14:43.832Z,100923.94
2018-09-11T15:17:12.871Z,100926.69
2018-09-11T15:19:41.946Z,100921.63
2018-09-11T15:22:10.970Z,100925.28
2018-09-11T15:24:40.292Z,100905.42
2018-09-11T15:27:09.336Z,100914.58
2018-09-11T15:29:38.335Z,100913.64
2018-09-11T15:32:07.470Z,100907.72
2018-09-11T15:34:36.450Z,100906.84
2018-09-11T15:37:05.482Z,100901.77
2018-09-11T15:39:34.487Z,100902.58
2018-09-11T15:42:03.534Z,100901.89
2018-09-11T15:44:32.586Z,100898.38
2018-09-11T15:47:01.828Z,100903.84
2018-09-11T15:49:30.735Z,100901.30
2018-09-11T15:51:59.766Z,100901.68
2018-09-11T15:54:28.777Z,100890.41
2018-09-11T15:56:57.802Z,100886.75
2018-09-11T15:59:26.774Z,100882.44
2018-09-11T16:01:55.806Z,100884.66
2018-09-11T16:04:24.854Z,100880.78
2018-09-11T16:06:53.970Z,100879.00
2018-09-11T16:09:23.174Z,100876.34
2018-09-11T16:11:52.203Z,100876.53
2018-09-11T16:14:21.242Z,100878.22
2018-09-11T16:16:50.293Z,100876.86
2018-09-11T16:19:19.251Z,100867.52
2018-09-11T16:21:48.342Z,100872.56
2018-09-11T16:24:17.341Z,100866.16
2018-09-11T16:26:46.518Z,100862.88
2018-09-11T16:29:15.504Z,100866.22
2018-09-11T16:31:44.567Z,100866.72
2018-09-11T16:34:13.613Z,100858.27
2018-09-11T16:36:42.784Z,100862.82
2018-09-11T16:39:13.142Z,100860.83
2018-09-11T16:41:42.372Z,100859.28
2018-09-11T16:44:11.334Z,100852.00
2018-09-11T16:46:40.375Z,100849.73
2018-09-11T16:49:09.701Z,100855.06
2018-09-11T16:51:39.146Z,100856.48
2018-09-11T16:54:08.196Z,100859.84
2018-09-11T16:56:37.223Z,100860.59
2018-09-11T16:59:06.274Z,100855.05
2018-09-11T17:01:35.306Z,100866.14
2018-09-11T17:04:04.282Z,100861.54
2018-09-11T17:06:33.346Z,100858.47
2018-09-11T17:09:02.324Z,100871.54
2018-09-11T17:11:31.396Z,100864.47
2018-09-11T17:14:00.500Z,100867.61
2018-09-11T17:16:29.625Z,100867.08
2018-09-11T17:18:58.660Z,100865.55
2018-09-11T17:21:27.687Z,100862.27
2018-09-11T17:23:56.785Z,100866.31
2018-09-11T17:26:25.734Z,100867.28
2018-09-11T17:28:54.786Z,100866.03
2018-09-11T17:31:23.778Z,100866.79
2018-09-11T17:33:52.908Z,100864.02
2018-09-11T17:36:21.850Z,100864.80
2018-09-11T17:38:50.846Z,100864.18
2018-09-11T17:41:19.761Z,100862.04
2018-09-11T17:43:48.755Z,100876.66
2018-09-11T17:46:17.668Z,100879.69
2018-09-11T17:48:46.834Z,100879.53
2018-09-11T17:51:15.794Z,100882.41
2018-09-11T17:53:44.838Z,100884.16
2018-09-11T17:56:13.899Z,100881.97
2018-09-11T17:58:42.981Z,100881.66
2018-09-11T18:01:12.049Z,100886.00
2018-09-11T18:03:41.028Z,100887.50
2018-09-11T18:06:10.143Z,100882.42
2018-09-11T18:08:39.327Z,100885.25
2018-09-11T18:11:08.335Z,100892.69
2018-09-11T18:13:37.330Z,100892.75
2018-09-11T18:16:06.307Z,100888.26
2018-09-11T18:18:35.311Z,100887.91
2018-09-11T18:21:04.261Z,100896.91
2018-09-11T18:23:33.302Z,100897.03
2018-09-11T18:26:02.432Z,100901.91
2018-09-11T18:28:31.498Z,100890.77
2018-09-11T18:31:00.514Z,100901.09
2018-09-11T18:33:29.497Z,100897.92
2018-09-11T18:35:58.506Z,100897.70
2018-09-11T18:38:27.660Z,100907.27
2018-09-11T18:40:56.702Z,100908.33
2018-09-11T18:43:25.720Z,100916.91
2018-09-11T18:45:54.764Z,100913.91
2018-09-11T18:48:23.815Z,100905.37
2018-09-11T18:50:52.794Z,100903.60
2018-09-11T18:53:21.884Z,100907.98
2018-09-11T18:55:50.967Z,100906.53
2018-09-11T18:58:19.991Z,100907.81
2018-09-11T19:00:49.003Z,100909.03
2018-09-11T19:03:18.018Z,100911.16
2018-09-11T19:05:46.993Z,100915.69
2018-09-11T19:08:16.218Z,100909.02
2018-09-11T19:10:45.259Z,100913.56
2018-09-11T19:13:14.402Z,100910.75
2018-09-11T19:15:43.487Z,100905.83
2018-09-11T19:18:12.517Z,100916.81
2018-09-11T19:20:41.614Z,100923.02
2018-09-11T19:23:10.715Z,100928.56
2018-09-11T19:25:39.738Z,100922.70
2018-09-11T19:28:08.790Z,100929.70
2018-09-11T19:30:37.739Z,100925.30
2018-09-11T19:33:06.787Z,100924.19
2018-09-11T19:35:35.810Z,100925.82
2018-09-11T19:38:04.798Z,100923.34
2018-09-11T19:40:33.786Z,100923.12
2018-09-11T19:43:02.970Z,100924.92
2018-09-11T19:45:31.879Z,100932.56
2018-09-11T19:48:00.932Z,100936.15
2018-09-11T19:50:29.903Z,100927.73
2018-09-11T19:52:58.910Z,100932.91
2018-09-11T19:55:27.815Z,100932.62
2018-09-11T19:57:56.998Z,100929.34
2018-09-11T20:00:26.000Z,100934.72
2018-09-11T20:02:55.060Z,100937.14
2018-09-11T20:05:24.006Z,100933.11
2018-09-11T20:07:52.991Z,100929.30
2018-09-11T20:10:21.921Z,100931.98
2018-09-11T20:12:50.984Z,100937.09
2018-09-11T20:15:20.056Z,100937.55
2018-09-11T20:17:49.013Z,100939.98
2018-09-11T20:20:17.968Z,100942.04
2018-09-11T20:22:46.955Z,100940.68
2018-09-11T20:25:16.132Z,100944.19
2018-09-11T20:27:45.240Z,100937.70
2018-09-11T20:30:14.315Z,100935.98
2018-09-11T20:32:43.311Z,100940.95
2018-09-11T20:35:12.299Z,100939.39
2018-09-11T20:37:41.295Z,100947.49
2018-09-11T20:40:10.324Z,100937.48
2018-09-11T20:42:39.343Z,100944.11
2018-09-11T20:45:08.440Z,100947.14
2018-09-11T20:47:37.409Z,100943.41
2018-09-11T20:50:06.574Z,100948.20
2018-09-11T20:52:35.531Z,100946.98
2018-09-11T20:55:04.654Z,100942.20
2018-09-11T20:57:33.606Z,100952.95
2018-09-11T21:00:02.701Z,100950.59
2018-09-11T21:02:31.665Z,100956.61
2018-09-11T21:05:00.603Z,100962.56
2018-09-11T21:07:29.505Z,100957.18
2018-09-11T21:09:58.886Z,100951.52
2018-09-11T21:12:28.138Z,100953.04
2018-09-11T21:14:57.103Z,100941.25
2018-09-11T21:17:26.010Z,100949.23
2018-09-11T21:19:55.041Z,100944.66
2018-09-11T21:22:23.958Z,100948.00
2018-09-11T21:24:52.926Z,100949.27
2018-09-11T21:27:21.900Z,100950.85
2018-09-11T21:29:50.954Z,100945.09
2018-09-11T21:32:19.925Z,100952.81
2018-09-11T21:34:48.982Z,100945.17
2018-09-11T21:37:18.025Z,100944.48
2018-09-11T21:39:47.130Z,100951.83
2018-09-11T21:42:16.066Z,100953.95
2018-09-11T21:44:45.157Z,100956.43
2018-09-11T21:47:14.179Z,100952.36
2018-09-11T21:49:43.178Z,100947.01
2018-09-11T21:52:12.166Z,100953.29
2018-09-11T21:54:41.315Z,100957.86
2018-09-11T21:57:10.279Z,100952.14
2018-09-11T21:59:39.318Z,100944.45
2018-09-11T22:02:08.282Z,100945.58
2018-09-11T22:04:37.347Z,100945.25
2018-09-11T22:07:06.418Z,100944.30
2018-09-11T22:09:35.498Z,100946.84
2018-09-11T22:12:04.522Z,100948.83
2018-09-11T22:14:33.633Z,100947.47
2018-09-11T22:17:02.601Z,100958.00
2018-09-11T22:19:31.600Z,100959.47
2018-09-11T22:22:00.650Z,100961.72
2018-09-11T22:24:29.722Z,100959.56
2018-09-11T22:26:58.719Z,100959.09
2018-09-11T22:29:27.766Z,100953.94
2018-09-11T22:31:56.850Z,100959.31
2018-09-11T22:34:25.947Z,100955.92
2018-09-11T22:36:54.935Z,100948.48
2018-09-11T22:39:23.903Z,100944.16
2018-09-11T22:41:52.910Z,100942.64
2018-09-11T22:44:21.885Z,100953.85
2018-09-11T22:46:50.989Z,100953.31
2018-09-11T22:49:20.029Z,100950.37
2018-09-11T22:51:48.954Z,100950.44
2018-09-11T22:54:17.965Z,100950.44
2018-09-11T22:56:46.908Z,100949.41
2018-09-11T22:59:15.864Z,100941.12
2018-09-11T23:01:44.827Z,100944.65
2018-09-11T23:04:13.802Z,100944.70
2018-09-11T23:06:42.798Z,100933.69
2018-09-11T23:09:12.235Z,100937.05
2018-09-11T23:11:41.272Z,100936.19
2018-09-11T23:14:10.304Z,100932.98
2018-09-11T23:16:39.299Z,100936.53
2018-09-11T23:19:08.278Z,100928.99
2018-09-11T23:21:37.282Z,100930.16
2018-09-11T23:24:05.749Z,100930.39
2018-09-11T23:26:34.904Z,100942.24
2018-09-11T23:29:03.900Z,100932.86
2018-09-11T23:31:32.888Z,100931.91
2018-09-11T23:34:01.844Z,100929.98
2018-09-11T23:36:30.830Z,100939.54
2018-09-11T23:38:59.772Z,100936.17
2018-09-11T23:41:28.884Z,100936.01
2018-09-11T23:43:57.889Z,100933.73
2018-09-11T23:46:26.874Z,100933.83
2018-09-11T23:48:55.854Z,100928.36
2018-09-11T23:51:24.819Z,100925.24
2018-09-11T23:53:53.786Z,100917.46
2018-09-11T23:56:22.874Z,100914.45
2018-09-11T23:58:51.864Z,100915.69
